Imperial, NE

4:37 PM MDT on September 19, 2014 (GMT -0600)
Cheyenne County Municipal | Change Station
CLOSE
Current Station
Airport
Location: St. Francis,
Elevation: 3412 ft
Nearby Weather Stations

Elev 3412 ft 39.76 °N, 101.80 °W | Updated 22 minutes ago

Clear
Clear
89 °F
Feels Like 89 °F
N
15
Wind Variable Wind from SSW

Today
High -- | Low -- °F
--% Chance of Precip.
Yesterday
High -- | Low -- °F
Precip. -- in
6:31 AM 6:48 PM
Waning Crescent, 16% visible
Pressure 29.84 in
Visibility 10.0 miles
Clouds Clear
Dew Point 47 °F
Humidity 23%
Rainfall 0.00 in
Snow Depth Not available.
UV 3 out of 12
Pollen 6.20 out of 12
Air Quality Not available.
Flu Activity Not available.
METAR KSYF 192215Z AUTO 20013KT 10SM CLR 32/08 A2984 RMK AO2 T03190084

More Conditions Fewer Conditions

Pressure 29.84 in
Visibility 10.0 miles
Clouds Clear
Dew Point 47 °F
Humidity 23%
Rainfall 0.00 in
Snow Depth Not available.
UV 3 out of 12
Pollen 6.20 out of 12
Air Quality Not available.
Flu Activity Not available.
METAR KSYF 192215Z AUTO 20013KT 10SM CLR 32/08 A2984 RMK AO2 T03190084

More Conditions Fewer Conditions

10-Day Weather Forecast

Almanac

Astronomy

Sep. 19, 2014 Rise Set
Actual Time 6:31 AM MDT 6:48 PM MDT
Civil Twilight 6:03 AM MDT 7:15 PM MDT
Nautical Twilight 5:31 AM MDT 7:47 PM MDT
Astronomical Twilight 4:59 AM MDT 8:20 PM MDT
Moon 2:17 AM MDT 4:19 PM MDT
Length of Visible Light 13h 11m
Length of Day
12h 17m
Tomorrow will be 2m 40s shorter.
Waning Crescent, 16% of the Moon is Illuminated
Today
Waning Crescent
Sep 24
New
Oct 1
First Quarter
Oct 8
Full
Oct 15
Last Quarter

Today's Extremes

State Highs State Lows

Community

WunderPhotos

Upload Photos

1,754,721 photos uploaded!

WunderBlogs® & News

By Dr. Jeff Masters
Director of Meteorology, Weather Underground
By Kari Strenfel
Meteorologist, Weather Underground
By Christopher C. Burt
Weather Historian, Weather Underground
September 19, 2014
September 19, 2014
September 19, 2014

Nearby

Snow Depth

Station Depth Elevation
No new snow has been reported.

Earthquake Activity

City Distance Mag. Time & Date
No recent earthquake activity has been reported nearby.
Minimum magnitude displayed is 2.5.

Coastal Water Temperatures

Place Temperature
No Stations Reporting

Nearby Weather Stations